createdAt,value
2023-04-20T00:00:11.786Z,8.33
2023-04-20T00:02:43.247Z,8.33
2023-04-20T00:05:12.954Z,8.33
2023-04-20T00:07:41.805Z,8.32
2023-04-20T00:10:10.319Z,8.32
2023-04-20T00:12:39.074Z,8.33
2023-04-20T00:15:07.776Z,8.35
2023-04-20T00:17:38.767Z,8.37
2023-04-20T00:20:09.271Z,8.37
2023-04-20T00:22:38.739Z,8.40
2023-04-20T00:25:07.411Z,8.40
2023-04-20T00:27:36.321Z,8.39
2023-04-20T00:30:04.815Z,8.38
2023-04-20T00:32:33.912Z,8.38
2023-04-20T00:35:02.340Z,8.38
2023-04-20T00:37:31.229Z,8.37
2023-04-20T00:39:59.590Z,8.38
2023-04-20T00:42:27.772Z,8.38
2023-04-20T00:44:56.016Z,8.40
2023-04-20T00:47:24.344Z,8.39
2023-04-20T00:49:53.357Z,8.41
2023-04-20T00:52:21.705Z,8.43
2023-04-20T00:54:50.035Z,8.45
2023-04-20T00:57:19.927Z,8.47
2023-04-20T00:59:48.231Z,8.48
2023-04-20T01:02:16.666Z,8.48
2023-04-20T01:04:47.122Z,8.48
2023-04-20T01:07:16.298Z,8.50
2023-04-20T01:09:44.628Z,8.50
2023-04-20T01:12:12.977Z,8.52
2023-04-20T01:14:41.395Z,8.54
2023-04-20T01:17:09.836Z,8.55
2023-04-20T01:19:38.080Z,8.56
2023-04-20T01:22:06.294Z,8.58
2023-04-20T01:24:34.966Z,8.58
2023-04-20T01:27:03.247Z,8.58
2023-04-20T01:29:31.996Z,8.58
2023-04-20T01:32:00.392Z,8.60
2023-04-20T01:34:28.721Z,8.61
2023-04-20T01:36:56.984Z,8.61
2023-04-20T01:39:25.254Z,8.61
2023-04-20T01:41:56.859Z,8.61
2023-04-20T01:44:26.238Z,8.63
2023-04-20T01:46:55.138Z,8.64
2023-04-20T01:49:23.369Z,8.65
2023-04-20T01:51:53.507Z,8.66
2023-04-20T01:54:23.135Z,8.68
2023-04-20T01:56:51.300Z,8.71
2023-04-20T01:59:19.866Z,8.75
2023-04-20T02:01:48.360Z,8.77
2023-04-20T02:04:16.715Z,8.80
2023-04-20T02:06:45.125Z,8.82
2023-04-20T02:09:13.376Z,8.84
2023-04-20T02:11:41.746Z,8.86
2023-04-20T02:14:10.031Z,8.87
2023-04-20T02:16:38.375Z,8.88
2023-04-20T02:19:07.042Z,8.89
2023-04-20T02:21:36.051Z,8.90
2023-04-20T02:24:04.974Z,8.91
2023-04-20T02:26:34.417Z,8.91
2023-04-20T02:29:02.679Z,8.93
2023-04-20T02:31:31.216Z,8.94
2023-04-20T02:33:59.674Z,8.94
2023-04-20T02:36:29.536Z,8.95
2023-04-20T02:38:57.854Z,8.95
2023-04-20T02:41:26.072Z,8.94
2023-04-20T02:43:54.309Z,8.93
2023-04-20T02:46:23.044Z,8.93
2023-04-20T02:48:51.405Z,8.93
2023-04-20T02:51:19.962Z,8.94
2023-04-20T02:53:48.126Z,8.95
2023-04-20T02:56:30.319Z,8.96
2023-04-20T02:59:02.665Z,8.96
2023-04-20T03:01:49.381Z,8.96
2023-04-20T03:04:22.400Z,8.96
2023-04-20T03:07:15.347Z,8.94
2023-04-20T03:09:45.013Z,8.93
2023-04-20T03:12:26.871Z,8.92
2023-04-20T03:15:13.840Z,8.90
2023-04-20T03:17:56.604Z,8.89
2023-04-20T03:20:25.528Z,8.88
2023-04-20T03:22:54.455Z,8.87
2023-04-20T03:25:24.630Z,8.88
2023-04-20T03:27:56.241Z,8.91
2023-04-20T03:30:24.537Z,8.95
2023-04-20T03:33:01.111Z,8.97
2023-04-20T03:35:30.215Z,8.98
2023-04-20T03:37:58.403Z,8.99
2023-04-20T03:40:26.767Z,9.01
2023-04-20T03:42:55.071Z,9.03
2023-04-20T03:45:23.367Z,9.04
2023-04-20T03:47:51.650Z,9.05
2023-04-20T03:50:19.900Z,9.08
2023-04-20T03:52:48.436Z,9.09
2023-04-20T03:55:16.917Z,9.09
2023-04-20T03:57:49.192Z,9.11
2023-04-20T04:00:17.660Z,9.12
2023-04-20T04:02:48.773Z,9.16
2023-04-20T04:08:14.825Z,9.25
2023-04-20T04:10:43.194Z,9.29
2023-04-20T04:15:59.350Z,9.38
2023-04-20T04:18:32.709Z,9.41
2023-04-20T04:21:04.987Z,9.43
2023-04-20T04:23:35.864Z,9.45
2023-04-20T04:26:25.047Z,9.47
2023-04-20T04:28:53.979Z,9.50
2023-04-20T04:31:23.846Z,9.52
2023-04-20T04:33:52.676Z,9.53
2023-04-20T04:36:33.547Z,9.56
2023-04-20T04:39:02.594Z,9.56
2023-04-20T04:41:31.311Z,9.57
2023-04-20T04:44:09.071Z,9.58
2023-04-20T04:46:37.413Z,9.61
2023-04-20T04:49:06.037Z,9.62
2023-04-20T04:51:34.343Z,9.62
2023-04-20T04:54:02.650Z,9.63
2023-04-20T04:56:31.513Z,9.64
2023-04-20T04:59:00.151Z,9.64
2023-04-20T05:01:28.450Z,9.64
2023-04-20T05:03:56.859Z,9.64
2023-04-20T05:06:25.755Z,9.64
2023-04-20T05:08:53.972Z,9.65
2023-04-20T05:11:22.320Z,9.68
2023-04-20T05:13:51.133Z,9.70
2023-04-20T05:16:19.355Z,9.73
2023-04-20T05:18:47.734Z,9.74
2023-04-20T05:21:16.066Z,9.75
2023-04-20T05:23:44.424Z,9.75
2023-04-20T05:26:12.743Z,9.76
2023-04-20T05:28:41.084Z,9.77
2023-04-20T05:31:09.683Z,9.78
2023-04-20T05:33:37.955Z,9.79
2023-04-20T05:36:09.312Z,9.79
2023-04-20T05:41:14.794Z,9.85
2023-04-20T05:43:43.139Z,9.83
2023-04-20T05:46:11.594Z,9.83
2023-04-20T05:48:39.948Z,9.83
2023-04-20T05:51:08.353Z,9.84
2023-04-20T05:53:37.067Z,9.83
2023-04-20T05:56:06.462Z,9.83
2023-04-20T05:58:34.871Z,9.83
2023-04-20T06:01:04.446Z,9.82
2023-04-20T06:03:33.632Z,9.81
2023-04-20T06:06:02.012Z,9.81
2023-04-20T06:08:30.388Z,9.80
2023-04-20T06:10:58.873Z,9.79
2023-04-20T06:13:27.213Z,9.76
2023-04-20T06:15:55.583Z,9.75
2023-04-20T06:18:24.571Z,9.76
2023-04-20T06:20:52.979Z,9.75
2023-04-20T06:23:21.481Z,9.75
2023-04-20T06:25:49.862Z,9.75
2023-04-20T06:28:18.376Z,9.75
2023-04-20T06:30:47.095Z,9.74
2023-04-20T06:33:17.574Z,9.73
2023-04-20T06:35:45.833Z,9.72
2023-04-20T06:38:14.123Z,9.71
2023-04-20T06:40:42.354Z,9.70
2023-04-20T06:43:10.591Z,9.70
2023-04-20T06:45:38.803Z,9.70
2023-04-20T06:48:14.400Z,9.71
2023-04-20T06:50:52.198Z,9.73
2023-04-20T06:53:20.437Z,9.72
2023-04-20T06:55:48.595Z,9.73
2023-04-20T06:58:16.993Z,9.72
2023-04-20T07:00:45.993Z,9.71
2023-04-20T07:03:14.451Z,9.72
2023-04-20T07:05:42.956Z,9.71
2023-04-20T07:08:11.298Z,9.73
2023-04-20T07:10:39.786Z,9.72
2023-04-20T07:13:08.032Z,9.73
2023-04-20T07:15:36.407Z,9.75
2023-04-20T07:18:04.674Z,9.76
2023-04-20T07:20:33.116Z,9.77
2023-04-20T07:23:01.319Z,9.78
2023-04-20T07:25:31.713Z,9.78
2023-04-20T07:27:59.900Z,9.79
2023-04-20T07:30:28.198Z,9.80
2023-04-20T07:32:56.756Z,9.80
2023-04-20T07:35:25.077Z,9.81
2023-04-20T07:37:53.417Z,9.82
2023-04-20T07:40:21.863Z,9.84
2023-04-20T07:42:50.443Z,9.87
2023-04-20T07:45:19.111Z,9.90
2023-04-20T07:47:51.653Z,9.90
2023-04-20T07:50:20.154Z,9.93
2023-04-20T07:52:48.718Z,9.97
2023-04-20T07:55:17.589Z,10.01
2023-04-20T07:57:46.086Z,10.03
2023-04-20T08:00:15.390Z,10.06
2023-04-20T08:02:46.610Z,10.08
2023-04-20T08:05:15.364Z,10.11
2023-04-20T08:07:44.375Z,10.15
2023-04-20T08:10:12.861Z,10.19
2023-04-20T08:12:41.749Z,10.24
2023-04-20T08:15:11.079Z,10.29
2023-04-20T08:17:40.025Z,10.35
2023-04-20T08:20:08.499Z,10.45
2023-04-20T08:22:38.056Z,10.54
2023-04-20T08:25:06.614Z,10.65
2023-04-20T08:27:35.371Z,10.75
2023-04-20T08:30:06.970Z,10.86
2023-04-20T08:32:35.650Z,10.97
2023-04-20T08:35:05.272Z,11.03
2023-04-20T08:37:34.638Z,11.12
2023-04-20T08:40:03.936Z,11.21
2023-04-20T08:42:33.093Z,11.30
2023-04-20T08:45:01.374Z,11.38
2023-04-20T08:47:29.952Z,11.42
2023-04-20T08:49:58.769Z,11.38
2023-04-20T08:52:27.566Z,11.36
2023-04-20T08:54:57.315Z,11.36
2023-04-20T08:57:26.622Z,11.38
2023-04-20T08:59:55.110Z,11.42
2023-04-20T09:02:23.506Z,11.47
2023-04-20T09:05:02.631Z,11.50
2023-04-20T09:07:32.328Z,11.53
2023-04-20T09:10:01.139Z,11.58
2023-04-20T09:12:42.976Z,11.62
2023-04-20T09:15:11.623Z,11.60
2023-04-20T09:17:41.506Z,11.57
2023-04-20T09:20:11.621Z,11.56
2023-04-20T09:22:41.063Z,11.53
2023-04-20T09:25:16.239Z,11.52
2023-04-20T09:27:55.564Z,11.52
2023-04-20T09:30:23.958Z,11.48
2023-04-20T09:33:02.805Z,11.42
2023-04-20T09:35:31.579Z,11.39
2023-04-20T09:38:00.016Z,11.31
2023-04-20T09:40:28.575Z,11.21
2023-04-20T09:42:59.396Z,11.09
2023-04-20T09:45:27.728Z,10.95
2023-04-20T09:47:56.394Z,10.83
2023-04-20T09:50:32.054Z,10.74
2023-04-20T09:53:06.921Z,10.69
2023-04-20T09:55:36.119Z,10.60
2023-04-20T09:58:05.105Z,10.56
2023-04-20T10:00:34.030Z,10.57
2023-04-20T10:03:02.459Z,10.59
2023-04-20T10:05:35.964Z,10.55
2023-04-20T10:08:04.300Z,10.52
2023-04-20T10:10:49.822Z,10.50
2023-04-20T10:13:20.765Z,10.48
2023-04-20T10:15:49.265Z,10.50
2023-04-20T10:18:24.059Z,10.54
2023-04-20T10:20:52.973Z,10.59
2023-04-20T10:23:21.542Z,10.70
2023-04-20T10:25:57.999Z,10.85
2023-04-20T10:28:27.104Z,10.99
2023-04-20T10:30:55.423Z,11.07
2023-04-20T10:33:24.154Z,11.09
2023-04-20T10:35:55.315Z,11.04
2023-04-20T10:38:34.619Z,10.94
2023-04-20T10:41:06.880Z,10.82
2023-04-20T10:43:36.275Z,10.76
2023-04-20T10:46:20.172Z,10.72
2023-04-20T10:48:58.598Z,10.67
2023-04-20T10:51:26.834Z,10.66
2023-04-20T10:54:01.958Z,10.66
2023-04-20T10:56:43.259Z,10.62
2023-04-20T10:59:16.782Z,10.55
2023-04-20T11:01:45.672Z,10.52
2023-04-20T11:04:16.179Z,10.55
2023-04-20T11:06:47.244Z,10.64
2023-04-20T11:09:28.666Z,10.73
2023-04-20T11:12:14.900Z,10.69
2023-04-20T11:14:54.332Z,10.70
2023-04-20T11:17:38.448Z,10.71
2023-04-20T11:20:12.349Z,10.76
2023-04-20T11:22:41.662Z,10.84
2023-04-20T11:25:11.630Z,10.85
2023-04-20T11:27:40.197Z,10.85
2023-04-20T11:30:10.163Z,10.87
2023-04-20T11:32:39.479Z,10.88
2023-04-20T11:35:09.617Z,10.97
2023-04-20T11:37:51.700Z,11.10
2023-04-20T11:40:20.426Z,11.20
2023-04-20T11:42:49.065Z,11.31
2023-04-20T11:45:18.149Z,11.41
2023-04-20T11:47:47.579Z,11.50
2023-04-20T11:50:16.259Z,11.56
2023-04-20T11:52:44.560Z,11.63
2023-04-20T11:55:12.903Z,11.69
2023-04-20T11:57:41.181Z,11.74
2023-04-20T12:00:10.155Z,11.75
2023-04-20T12:02:44.279Z,11.68
2023-04-20T12:05:12.955Z,11.64
2023-04-20T12:07:42.130Z,11.63
2023-04-20T12:10:12.163Z,11.57
2023-04-20T12:12:42.477Z,11.55
2023-04-20T12:15:10.994Z,11.51
2023-04-20T12:17:39.621Z,11.48
2023-04-20T12:20:11.569Z,11.41
2023-04-20T12:22:40.165Z,11.33
2023-04-20T12:25:08.653Z,11.24
2023-04-20T12:27:37.790Z,11.16
2023-04-20T12:30:07.054Z,11.10
2023-04-20T12:32:35.729Z,11.05
2023-04-20T12:35:04.133Z,10.99
2023-04-20T12:37:32.602Z,10.97
2023-04-20T12:40:00.940Z,10.92
2023-04-20T12:42:29.383Z,10.84
2023-04-20T12:44:57.587Z,10.77
2023-04-20T12:47:25.932Z,10.76
2023-04-20T12:49:55.290Z,10.74
2023-04-20T12:52:23.535Z,10.74
2023-04-20T12:54:51.708Z,10.74
2023-04-20T12:57:20.461Z,10.64
2023-04-20T12:59:51.625Z,10.51
2023-04-20T13:02:19.976Z,10.38
2023-04-20T13:04:48.301Z,10.24
2023-04-20T13:07:16.847Z,10.14
2023-04-20T13:09:45.189Z,10.08
2023-04-20T13:12:13.576Z,10.04
2023-04-20T13:14:42.057Z,9.97
2023-04-20T13:17:10.266Z,9.93
2023-04-20T13:19:38.427Z,9.89
2023-04-20T13:22:06.780Z,9.88
2023-04-20T13:24:35.369Z,9.86
2023-04-20T13:27:03.716Z,9.81
2023-04-20T13:29:33.006Z,9.78
2023-04-20T13:32:01.425Z,9.77
2023-04-20T13:34:31.086Z,9.78
2023-04-20T13:36:59.263Z,9.81
2023-04-20T13:39:28.045Z,9.84
2023-04-20T13:41:57.013Z,9.83
2023-04-20T13:44:25.503Z,9.84
2023-04-20T13:46:53.976Z,9.87
2023-04-20T13:49:22.981Z,9.94
2023-04-20T13:51:51.530Z,10.03
2023-04-20T13:54:19.901Z,10.09
2023-04-20T13:56:48.450Z,10.11
2023-04-20T13:59:16.781Z,10.08
2023-04-20T14:01:45.210Z,10.04
2023-04-20T14:04:17.072Z,10.06
2023-04-20T14:06:46.289Z,10.09
2023-04-20T14:09:14.666Z,10.11
2023-04-20T14:11:43.968Z,10.17
2023-04-20T14:14:12.289Z,10.20
2023-04-20T14:16:48.259Z,10.22
2023-04-20T14:19:16.636Z,10.31
2023-04-20T14:21:46.763Z,10.38
2023-04-20T14:24:15.123Z,10.43
2023-04-20T14:26:44.101Z,10.51
2023-04-20T14:29:13.025Z,10.54
2023-04-20T14:31:41.498Z,10.52
2023-04-20T14:34:09.835Z,10.49
2023-04-20T14:36:38.131Z,10.46
2023-04-20T14:39:06.356Z,10.44
2023-04-20T14:41:35.324Z,10.42
2023-04-20T14:44:04.302Z,10.37
2023-04-20T14:46:33.152Z,10.30
2023-04-20T14:49:01.495Z,10.21
2023-04-20T14:51:30.032Z,10.12
2023-04-20T14:53:58.602Z,10.06
2023-04-20T14:56:27.084Z,10.06
2023-04-20T14:58:57.430Z,10.07
2023-04-20T15:01:25.973Z,10.08
2023-04-20T15:03:54.602Z,10.06
2023-04-20T15:06:23.247Z,10.05
2023-04-20T15:08:54.834Z,10.05
2023-04-20T15:11:23.226Z,10.02
2023-04-20T15:13:52.779Z,9.97
2023-04-20T15:16:21.150Z,9.92
2023-04-20T15:18:52.074Z,9.88
2023-04-20T15:21:23.665Z,9.83
2023-04-20T15:23:51.943Z,9.77
2023-04-20T15:26:20.173Z,9.76
2023-04-20T15:28:50.104Z,9.77
2023-04-20T15:31:21.062Z,9.76
2023-04-20T15:33:49.446Z,9.72
2023-04-20T15:36:18.271Z,9.73
2023-04-20T15:38:47.178Z,9.73
2023-04-20T15:41:16.571Z,9.75
2023-04-20T15:43:44.936Z,9.76
2023-04-20T15:46:13.203Z,9.77
2023-04-20T15:48:41.537Z,9.76
2023-04-20T15:51:09.731Z,9.73
2023-04-20T15:53:38.430Z,9.71
2023-04-20T15:56:07.101Z,9.70
2023-04-20T15:58:37.269Z,9.67
2023-04-20T16:08:44.289Z,9.66
2023-04-20T16:11:12.540Z,9.61
2023-04-20T16:13:40.842Z,9.60
2023-04-20T16:16:09.137Z,9.59
2023-04-20T16:18:37.422Z,9.59
2023-04-20T16:21:05.719Z,9.56
2023-04-20T16:23:33.997Z,9.53
2023-04-20T16:26:02.293Z,9.51
2023-04-20T16:28:31.076Z,9.50
2023-04-20T16:31:00.302Z,9.49
2023-04-20T16:33:30.662Z,9.47
2023-04-20T16:35:59.596Z,9.46
2023-04-20T16:38:27.846Z,9.47
2023-04-20T16:40:56.178Z,9.47
2023-04-20T16:43:24.564Z,9.47
2023-04-20T16:45:52.949Z,9.47
2023-04-20T16:48:21.776Z,9.47
2023-04-20T16:50:49.996Z,9.47
2023-04-20T16:53:18.178Z,9.47
2023-04-20T16:55:46.520Z,9.47
2023-04-20T16:58:14.798Z,9.47
2023-04-20T17:00:43.578Z,9.46
2023-04-20T17:03:13.732Z,9.45
2023-04-20T17:05:42.823Z,9.44
2023-04-20T17:08:11.507Z,9.43
2023-04-20T17:10:40.315Z,9.41
2023-04-20T17:13:08.581Z,9.38
2023-04-20T17:15:37.274Z,9.35
2023-04-20T17:18:07.113Z,9.33
2023-04-20T17:20:35.777Z,9.32
2023-04-20T17:23:04.257Z,9.34
2023-04-20T17:25:33.439Z,9.35
2023-04-20T17:28:02.961Z,9.34
2023-04-20T17:30:31.770Z,9.35
2023-04-20T17:33:01.984Z,9.35
2023-04-20T17:35:30.854Z,9.36
2023-04-20T17:38:00.104Z,9.37
2023-04-20T17:40:28.470Z,9.37
2023-04-20T17:42:56.709Z,9.36
2023-04-20T17:45:24.949Z,9.36
2023-04-20T17:47:53.886Z,9.36
2023-04-20T17:50:23.343Z,9.36
2023-04-20T17:52:51.900Z,9.37
2023-04-20T17:55:20.469Z,9.38
2023-04-20T17:59:00.422Z,9.40
2023-04-20T18:01:29.011Z,9.37
2023-04-20T18:03:57.601Z,9.36
2023-04-20T18:06:26.450Z,9.35
2023-04-20T18:08:56.540Z,9.33
2023-04-20T18:11:25.107Z,9.31
2023-04-20T18:13:55.103Z,9.30
2023-04-20T18:16:23.552Z,9.30
2023-04-20T18:18:52.919Z,9.29
2023-04-20T18:21:21.747Z,9.27
2023-04-20T18:23:50.303Z,9.25
2023-04-20T18:26:18.796Z,9.25
2023-04-20T18:28:47.594Z,9.24
2023-04-20T18:31:16.065Z,9.23
2023-04-20T18:33:44.372Z,9.22
2023-04-20T18:36:12.781Z,9.21
2023-04-20T18:38:41.635Z,9.20
2023-04-20T18:41:10.442Z,9.19
2023-04-20T18:43:39.551Z,9.17
2023-04-20T18:46:08.850Z,9.12
2023-04-20T18:48:37.308Z,9.08
2023-04-20T18:51:06.362Z,9.02
2023-04-20T18:53:35.130Z,8.95
2023-04-20T18:56:03.712Z,8.91
2023-04-20T18:58:32.138Z,8.91
2023-04-20T19:01:03.676Z,8.89
2023-04-20T19:03:32.429Z,8.86
2023-04-20T19:06:01.111Z,8.83
2023-04-20T19:08:29.645Z,8.81
2023-04-20T19:10:59.232Z,8.79
2023-04-20T19:13:28.272Z,8.77
2023-04-20T19:15:59.408Z,8.75
2023-04-20T19:18:28.070Z,8.71
2023-04-20T19:20:56.356Z,8.67
2023-04-20T19:23:24.643Z,8.65
2023-04-20T19:25:53.021Z,8.64
2023-04-20T19:28:23.471Z,8.63
2023-04-20T19:30:53.142Z,8.59
2023-04-20T19:33:21.447Z,8.58
2023-04-20T19:35:51.161Z,8.57
2023-04-20T19:38:20.324Z,8.58
2023-04-20T19:40:49.432Z,8.55
2023-04-20T19:43:19.868Z,8.53
2023-04-20T19:45:48.166Z,8.51
2023-04-20T19:48:16.573Z,8.48
2023-04-20T19:50:44.769Z,8.46
2023-04-20T19:53:13.194Z,8.45
2023-04-20T19:55:41.503Z,8.43
2023-04-20T19:58:11.089Z,8.42
2023-04-20T20:00:39.344Z,8.41
2023-04-20T20:03:10.343Z,8.37
2023-04-20T20:05:38.902Z,8.36
2023-04-20T20:08:07.091Z,8.34
2023-04-20T20:10:35.955Z,8.31
2023-04-20T20:13:04.270Z,8.28
2023-04-20T20:15:32.597Z,8.26
2023-04-20T20:18:01.036Z,8.25
2023-04-20T20:20:32.569Z,8.24
2023-04-20T20:23:00.845Z,8.24
2023-04-20T20:25:29.466Z,8.24
2023-04-20T20:27:57.866Z,8.24
2023-04-20T20:30:26.189Z,8.25
2023-04-20T20:32:54.667Z,8.23
2023-04-20T20:35:22.932Z,8.22
2023-04-20T20:37:51.128Z,8.19
2023-04-20T20:40:19.512Z,8.17
2023-04-20T20:42:48.179Z,8.16
2023-04-20T20:45:16.535Z,8.16
2023-04-20T20:47:45.390Z,8.15
2023-04-20T20:50:14.687Z,8.12
2023-04-20T20:52:42.963Z,8.11
2023-04-20T20:55:11.383Z,8.10
2023-04-20T20:57:39.893Z,8.08
2023-04-20T21:00:12.495Z,8.08
2023-04-20T21:02:42.429Z,8.08
2023-04-20T21:05:11.092Z,8.08
2023-04-20T21:07:39.483Z,8.09
2023-04-20T21:10:08.034Z,8.10
2023-04-20T21:12:36.876Z,8.12
2023-04-20T21:15:05.640Z,8.12
2023-04-20T21:17:34.316Z,8.12
2023-04-20T21:20:05.856Z,8.13
2023-04-20T21:22:34.897Z,8.12
2023-04-20T21:25:03.928Z,8.14
2023-04-20T21:27:32.838Z,8.14
2023-04-20T21:30:01.062Z,8.14
2023-04-20T21:32:29.398Z,8.14
2023-04-20T21:34:57.587Z,8.13
2023-04-20T21:37:25.969Z,8.14
2023-04-20T21:39:54.234Z,8.13
2023-04-20T21:42:22.556Z,8.11
2023-04-20T21:44:50.856Z,8.10
2023-04-20T21:47:19.144Z,8.11
2023-04-20T21:49:47.385Z,8.11
2023-04-20T21:52:15.822Z,8.10
2023-04-20T21:54:44.045Z,8.09
2023-04-20T21:57:12.321Z,8.10
2023-04-20T21:59:40.649Z,8.11
2023-04-20T22:02:09.187Z,8.13
2023-04-20T22:04:37.657Z,8.13
2023-04-20T22:07:06.152Z,8.14
2023-04-20T22:09:34.410Z,8.14
2023-04-20T22:12:03.448Z,8.13
2023-04-20T22:14:31.941Z,8.12
2023-04-20T22:17:02.090Z,8.09
2023-04-20T22:19:30.433Z,8.08
2023-04-20T22:21:58.680Z,8.06
2023-04-20T22:24:26.909Z,8.03
2023-04-20T22:26:55.117Z,8.02
2023-04-20T22:29:23.587Z,8.02
2023-04-20T22:31:51.850Z,8.04
2023-04-20T22:34:20.103Z,8.04
2023-04-20T22:36:48.315Z,8.04
2023-04-20T22:39:16.705Z,8.03
2023-04-20T22:41:45.217Z,8.03
2023-04-20T22:44:13.507Z,8.04
2023-04-20T22:46:41.793Z,8.04
2023-04-20T22:49:10.348Z,8.05
2023-04-20T22:51:38.612Z,8.06
2023-04-20T22:54:06.844Z,8.08
2023-04-20T22:56:35.494Z,8.09
2023-04-20T22:59:03.786Z,8.10
2023-04-20T23:01:33.073Z,8.09
2023-04-20T23:04:01.593Z,8.08
2023-04-20T23:06:31.782Z,8.08
2023-04-20T23:09:00.678Z,8.08
2023-04-20T23:11:29.474Z,8.06
2023-04-20T23:13:57.750Z,8.04
2023-04-20T23:16:28.224Z,8.02
2023-04-20T23:18:56.459Z,8.00
2023-04-20T23:21:24.682Z,7.97
2023-04-20T23:23:53.111Z,7.96
2023-04-20T23:26:21.498Z,7.97
2023-04-20T23:28:53.289Z,7.99
2023-04-20T23:31:21.601Z,8.00
2023-04-20T23:33:49.979Z,7.99
2023-04-20T23:36:18.233Z,7.99
2023-04-20T23:38:46.472Z,7.97
2023-04-20T23:41:15.215Z,7.94
2023-04-20T23:43:43.490Z,7.93
2023-04-20T23:46:12.870Z,7.93
2023-04-20T23:48:41.364Z,7.92
2023-04-20T23:51:09.562Z,7.91
2023-04-20T23:53:39.315Z,7.89
2023-04-20T23:56:07.942Z,7.88
2023-04-20T23:58:37.215Z,7.86
